sensor_id;sensor_type;location;lat;lon;timestamp;temperature;humidity
17483;DHT22;8858;52.308;20.994;2022-07-06T00:06:38;18.30;99.90
17483;DHT22;8858;52.308;20.994;2022-07-06T00:09:12;18.40;99.90
17483;DHT22;8858;52.308;20.994;2022-07-06T00:11:42;18.30;99.90
17483;DHT22;8858;52.308;20.994;2022-07-06T00:14:10;18.20;99.90
17483;DHT22;8858;52.308;20.994;2022-07-06T00:16:38;18.10;99.90
17483;DHT22;8858;52.308;20.994;2022-07-06T00:19:08;18.20;99.90
17483;DHT22;8858;52.308;20.994;2022-07-06T00:21:37;18.20;99.90
17483;DHT22;8858;52.308;20.994;2022-07-06T00:24:31;18.10;99.90
17483;DHT22;8858;52.308;20.994;2022-07-06T00:26:59;18.00;99.90
17483;DHT22;8858;52.308;20.994;2022-07-06T00:30:42;18.10;99.90
17483;DHT22;8858;52.308;20.994;2022-07-06T00:33:16;18.00;99.90
17483;DHT22;8858;52.308;20.994;2022-07-06T00:35:46;18.00;99.90
17483;DHT22;8858;52.308;20.994;2022-07-06T00:38:16;18.00;99.90
17483;DHT22;8858;52.308;20.994;2022-07-06T00:40:50;18.00;99.90
17483;DHT22;8858;52.308;20.994;2022-07-06T00:43:47;18.00;99.90
17483;DHT22;8858;52.308;20.994;2022-07-06T00:46:27;17.90;99.90
17483;DHT22;8858;52.308;20.994;2022-07-06T00:49:19;18.00;99.90
17483;DHT22;8858;52.308;20.994;2022-07-06T00:52:16;18.00;99.90
17483;DHT22;8858;52.308;20.994;2022-07-06T00:54:48;17.90;99.90
17483;DHT22;8858;52.308;20.994;2022-07-06T00:57:19;17.90;99.90
17483;DHT22;8858;52.308;20.994;2022-07-06T00:59:48;18.00;99.90
17483;DHT22;8858;52.308;20.994;2022-07-06T01:02:45;18.00;99.90
17483;DHT22;8858;52.308;20.994;2022-07-06T01:05:50;18.00;99.90
17483;DHT22;8858;52.308;20.994;2022-07-06T01:09:08;18.00;99.90
17483;DHT22;8858;52.308;20.994;2022-07-06T01:11:41;18.00;99.90
17483;DHT22;8858;52.308;20.994;2022-07-06T01:14:12;18.00;99.90
17483;DHT22;8858;52.308;20.994;2022-07-06T01:16:41;18.00;99.90
17483;DHT22;8858;52.308;20.994;2022-07-06T01:19:09;18.00;99.90
17483;DHT22;8858;52.308;20.994;2022-07-06T01:21:39;18.00;99.90
17483;DHT22;8858;52.308;20.994;2022-07-06T01:24:08;18.00;99.90
17483;DHT22;8858;52.308;20.994;2022-07-06T01:26:37;18.00;99.90
17483;DHT22;8858;52.308;20.994;2022-07-06T01:29:06;18.00;99.90
17483;DHT22;8858;52.308;20.994;2022-07-06T01:31:35;18.00;99.90
17483;DHT22;8858;52.308;20.994;2022-07-06T01:34:04;17.90;99.90
17483;DHT22;8858;52.308;20.994;2022-07-06T01:36:33;18.00;99.90
17483;DHT22;8858;52.308;20.994;2022-07-06T01:39:03;18.00;99.90
17483;DHT22;8858;52.308;20.994;2022-07-06T01:41:31;17.90;99.90
17483;DHT22;8858;52.308;20.994;2022-07-06T01:43:59;18.00;99.90
17483;DHT22;8858;52.308;20.994;2022-07-06T01:46:29;18.00;99.90
17483;DHT22;8858;52.308;20.994;2022-07-06T01:48:58;17.90;99.90
17483;DHT22;8858;52.308;20.994;2022-07-06T01:51:31;17.80;99.90
17483;DHT22;8858;52.308;20.994;2022-07-06T01:54:04;17.80;99.90
17483;DHT22;8858;52.308;20.994;2022-07-06T01:56:36;17.80;99.90
17483;DHT22;8858;52.308;20.994;2022-07-06T01:59:30;17.80;99.90
17483;DHT22;8858;52.308;20.994;2022-07-06T02:01:59;17.80;99.90
17483;DHT22;8858;52.308;20.994;2022-07-06T02:04:28;17.80;99.90
17483;DHT22;8858;52.308;20.994;2022-07-06T02:06:57;17.80;99.90
17483;DHT22;8858;52.308;20.994;2022-07-06T02:09:31;17.80;99.90
17483;DHT22;8858;52.308;20.994;2022-07-06T02:12:01;17.80;99.90
17483;DHT22;8858;52.308;20.994;2022-07-06T02:14:30;17.80;99.90
17483;DHT22;8858;52.308;20.994;2022-07-06T02:16:59;17.80;99.90
17483;DHT22;8858;52.308;20.994;2022-07-06T02:19:31;17.80;99.90
17483;DHT22;8858;52.308;20.994;2022-07-06T02:22:02;17.90;99.90
17483;DHT22;8858;52.308;20.994;2022-07-06T02:24:34;17.90;99.90
17483;DHT22;8858;52.308;20.994;2022-07-06T02:27:04;17.90;99.90
17483;DHT22;8858;52.308;20.994;2022-07-06T02:29:32;17.90;99.90
17483;DHT22;8858;52.308;20.994;2022-07-06T02:32:00;17.90;99.90
17483;DHT22;8858;52.308;20.994;2022-07-06T02:34:29;17.90;99.90
17483;DHT22;8858;52.308;20.994;2022-07-06T02:36:58;17.90;99.90
17483;DHT22;8858;52.308;20.994;2022-07-06T02:39:28;17.90;99.90
17483;DHT22;8858;52.308;20.994;2022-07-06T02:41:58;17.90;99.90
17483;DHT22;8858;52.308;20.994;2022-07-06T02:44:27;17.90;99.90
17483;DHT22;8858;52.308;20.994;2022-07-06T02:46:56;17.90;99.90
17483;DHT22;8858;52.308;20.994;2022-07-06T02:49:25;17.90;99.90
17483;DHT22;8858;52.308;20.994;2022-07-06T02:51:54;18.00;99.90
17483;DHT22;8858;52.308;20.994;2022-07-06T02:54:22;17.90;99.90
17483;DHT22;8858;52.308;20.994;2022-07-06T02:56:51;17.90;99.90
17483;DHT22;8858;52.308;20.994;2022-07-06T02:59:23;17.90;99.90
17483;DHT22;8858;52.308;20.994;2022-07-06T03:01:52;17.90;99.90
17483;DHT22;8858;52.308;20.994;2022-07-06T03:04:21;17.80;99.90
17483;DHT22;8858;52.308;20.994;2022-07-06T03:06:49;17.80;99.90
17483;DHT22;8858;52.308;20.994;2022-07-06T03:09:19;17.80;99.90
17483;DHT22;8858;52.308;20.994;2022-07-06T03:11:47;17.80;99.90
17483;DHT22;8858;52.308;20.994;2022-07-06T03:14:16;17.80;99.90
17483;DHT22;8858;52.308;20.994;2022-07-06T03:16:49;17.80;99.90
17483;DHT22;8858;52.308;20.994;2022-07-06T03:19:19;17.80;99.90
17483;DHT22;8858;52.308;20.994;2022-07-06T03:21:49;17.80;99.90
17483;DHT22;8858;52.308;20.994;2022-07-06T03:24:17;17.80;99.90
17483;DHT22;8858;52.308;20.994;2022-07-06T03:26:46;17.80;99.90
17483;DHT22;8858;52.308;20.994;2022-07-06T03:29:15;17.80;99.90
17483;DHT22;8858;52.308;20.994;2022-07-06T03:31:43;17.80;99.90
17483;DHT22;8858;52.308;20.994;2022-07-06T03:34:13;17.80;99.90
17483;DHT22;8858;52.308;20.994;2022-07-06T03:36:42;17.80;99.90
17483;DHT22;8858;52.308;20.994;2022-07-06T03:39:11;17.80;99.90
17483;DHT22;8858;52.308;20.994;2022-07-06T03:41:40;17.80;99.90
17483;DHT22;8858;52.308;20.994;2022-07-06T03:44:10;17.80;99.90
17483;DHT22;8858;52.308;20.994;2022-07-06T03:46:39;17.80;99.90
17483;DHT22;8858;52.308;20.994;2022-07-06T03:49:08;17.80;99.90
17483;DHT22;8858;52.308;20.994;2022-07-06T03:51:39;17.80;99.90
17483;DHT22;8858;52.308;20.994;2022-07-06T03:54:09;17.80;99.90
17483;DHT22;8858;52.308;20.994;2022-07-06T03:56:37;17.90;99.90
17483;DHT22;8858;52.308;20.994;2022-07-06T03:59:12;17.80;99.90
17483;DHT22;8858;52.308;20.994;2022-07-06T04:01:41;17.80;99.90
17483;DHT22;8858;52.308;20.994;2022-07-06T04:04:13;17.80;99.90
17483;DHT22;8858;52.308;20.994;2022-07-06T04:06:45;17.80;99.90
17483;DHT22;8858;52.308;20.994;2022-07-06T04:09:14;17.80;99.90
17483;DHT22;8858;52.308;20.994;2022-07-06T04:11:42;17.80;99.90
17483;DHT22;8858;52.308;20.994;2022-07-06T04:14:12;17.80;99.90
17483;DHT22;8858;52.308;20.994;2022-07-06T04:16:41;17.80;99.90
17483;DHT22;8858;52.308;20.994;2022-07-06T04:19:10;17.80;99.90
17483;DHT22;8858;52.308;20.994;2022-07-06T04:21:39;17.80;99.90
17483;DHT22;8858;52.308;20.994;2022-07-06T04:24:09;17.80;99.90
17483;DHT22;8858;52.308;20.994;2022-07-06T04:26:38;17.80;99.90
17483;DHT22;8858;52.308;20.994;2022-07-06T04:29:06;17.80;99.90
17483;DHT22;8858;52.308;20.994;2022-07-06T04:31:35;17.80;99.90
17483;DHT22;8858;52.308;20.994;2022-07-06T04:34:03;17.80;99.90
17483;DHT22;8858;52.308;20.994;2022-07-06T04:36:33;17.80;99.90
17483;DHT22;8858;52.308;20.994;2022-07-06T04:39:01;17.90;99.90
17483;DHT22;8858;52.308;20.994;2022-07-06T04:41:31;17.90;99.90
17483;DHT22;8858;52.308;20.994;2022-07-06T04:43:59;17.90;99.90
17483;DHT22;8858;52.308;20.994;2022-07-06T04:46:27;17.90;99.90
17483;DHT22;8858;52.308;20.994;2022-07-06T04:48:56;17.90;99.90
17483;DHT22;8858;52.308;20.994;2022-07-06T04:51:28;17.90;99.90
17483;DHT22;8858;52.308;20.994;2022-07-06T04:53:58;17.90;99.90
17483;DHT22;8858;52.308;20.994;2022-07-06T04:56:26;17.90;99.90
17483;DHT22;8858;52.308;20.994;2022-07-06T04:58:57;17.90;99.90
17483;DHT22;8858;52.308;20.994;2022-07-06T05:01:27;17.90;99.90
17483;DHT22;8858;52.308;20.994;2022-07-06T05:03:55;17.90;99.90
17483;DHT22;8858;52.308;20.994;2022-07-06T05:06:24;18.00;99.90
17483;DHT22;8858;52.308;20.994;2022-07-06T05:08:54;18.00;99.90
17483;DHT22;8858;52.308;20.994;2022-07-06T05:11:23;18.00;99.90
17483;DHT22;8858;52.308;20.994;2022-07-06T05:13:54;18.00;99.90
17483;DHT22;8858;52.308;20.994;2022-07-06T05:16:24;17.90;99.90
17483;DHT22;8858;52.308;20.994;2022-07-06T05:18:53;18.00;99.90
17483;DHT22;8858;52.308;20.994;2022-07-06T05:21:22;18.00;99.90
17483;DHT22;8858;52.308;20.994;2022-07-06T05:23:50;18.00;99.90
17483;DHT22;8858;52.308;20.994;2022-07-06T05:26:19;17.90;99.90
17483;DHT22;8858;52.308;20.994;2022-07-06T05:28:48;17.90;99.90
17483;DHT22;8858;52.308;20.994;2022-07-06T05:31:19;17.90;99.90
17483;DHT22;8858;52.308;20.994;2022-07-06T05:33:49;17.90;99.90
17483;DHT22;8858;52.308;20.994;2022-07-06T05:36:17;17.90;99.90
17483;DHT22;8858;52.308;20.994;2022-07-06T05:38:46;18.00;99.90
17483;DHT22;8858;52.308;20.994;2022-07-06T05:41:15;18.00;99.90
17483;DHT22;8858;52.308;20.994;2022-07-06T05:43:44;18.00;99.90
17483;DHT22;8858;52.308;20.994;2022-07-06T05:46:13;18.00;99.90
17483;DHT22;8858;52.308;20.994;2022-07-06T05:48:41;18.00;99.90
17483;DHT22;8858;52.308;20.994;2022-07-06T05:51:41;18.10;99.90
17483;DHT22;8858;52.308;20.994;2022-07-06T05:54:09;18.10;99.90
17483;DHT22;8858;52.308;20.994;2022-07-06T05:56:37;18.10;99.90
17483;DHT22;8858;52.308;20.994;2022-07-06T05:59:06;18.20;99.90
17483;DHT22;8858;52.308;20.994;2022-07-06T06:01:34;18.30;99.90
17483;DHT22;8858;52.308;20.994;2022-07-06T06:04:10;18.20;99.90
17483;DHT22;8858;52.308;20.994;2022-07-06T06:06:38;18.10;99.90
17483;DHT22;8858;52.308;20.994;2022-07-06T06:09:08;18.00;99.90
17483;DHT22;8858;52.308;20.994;2022-07-06T06:11:37;18.10;99.90
17483;DHT22;8858;52.308;20.994;2022-07-06T06:14:05;18.10;99.90
17483;DHT22;8858;52.308;20.994;2022-07-06T06:16:34;18.00;99.90
17483;DHT22;8858;52.308;20.994;2022-07-06T06:19:04;18.00;99.90
17483;DHT22;8858;52.308;20.994;2022-07-06T06:21:32;18.00;99.90
17483;DHT22;8858;52.308;20.994;2022-07-06T06:24:00;18.10;99.90
17483;DHT22;8858;52.308;20.994;2022-07-06T06:26:31;18.00;99.90
17483;DHT22;8858;52.308;20.994;2022-07-06T06:28:59;17.90;99.90
17483;DHT22;8858;52.308;20.994;2022-07-06T06:31:27;17.80;99.90
17483;DHT22;8858;52.308;20.994;2022-07-06T06:33:55;17.80;99.90
17483;DHT22;8858;52.308;20.994;2022-07-06T06:36:24;17.90;99.90
17483;DHT22;8858;52.308;20.994;2022-07-06T06:38:52;17.90;99.90
17483;DHT22;8858;52.308;20.994;2022-07-06T06:41:22;17.90;99.90
17483;DHT22;8858;52.308;20.994;2022-07-06T06:43:53;17.90;99.90
17483;DHT22;8858;52.308;20.994;2022-07-06T06:46:27;18.00;99.90
17483;DHT22;8858;52.308;20.994;2022-07-06T06:48:55;18.00;99.90
17483;DHT22;8858;52.308;20.994;2022-07-06T06:51:23;18.10;99.90
17483;DHT22;8858;52.308;20.994;2022-07-06T06:53:52;18.20;99.90
17483;DHT22;8858;52.308;20.994;2022-07-06T06:56:21;18.30;99.90
17483;DHT22;8858;52.308;20.994;2022-07-06T06:58:50;18.30;99.90
17483;DHT22;8858;52.308;20.994;2022-07-06T07:01:40;18.30;99.90
17483;DHT22;8858;52.308;20.994;2022-07-06T07:04:09;18.40;99.90
17483;DHT22;8858;52.308;20.994;2022-07-06T07:06:39;18.50;99.90
17483;DHT22;8858;52.308;20.994;2022-07-06T07:09:07;18.50;99.90
17483;DHT22;8858;52.308;20.994;2022-07-06T07:11:35;18.50;99.90
17483;DHT22;8858;52.308;20.994;2022-07-06T07:14:04;18.60;99.90
17483;DHT22;8858;52.308;20.994;2022-07-06T07:16:32;18.90;99.90
17483;DHT22;8858;52.308;20.994;2022-07-06T07:19:02;18.90;99.90
17483;DHT22;8858;52.308;20.994;2022-07-06T07:21:31;19.00;99.90
17483;DHT22;8858;52.308;20.994;2022-07-06T07:24:01;19.10;99.90
17483;DHT22;8858;52.308;20.994;2022-07-06T07:26:36;19.20;99.90
17483;DHT22;8858;52.308;20.994;2022-07-06T07:29:04;19.30;99.90
17483;DHT22;8858;52.308;20.994;2022-07-06T07:31:32;19.30;99.90
17483;DHT22;8858;52.308;20.994;2022-07-06T07:34:03;19.30;99.90
17483;DHT22;8858;52.308;20.994;2022-07-06T07:36:31;19.10;99.90
17483;DHT22;8858;52.308;20.994;2022-07-06T07:39:00;19.10;99.90
17483;DHT22;8858;52.308;20.994;2022-07-06T07:41:28;19.10;99.90
17483;DHT22;8858;52.308;20.994;2022-07-06T07:43:57;19.10;99.90
17483;DHT22;8858;52.308;20.994;2022-07-06T07:46:25;19.30;99.90
17483;DHT22;8858;52.308;20.994;2022-07-06T07:48:54;19.20;99.90
17483;DHT22;8858;52.308;20.994;2022-07-06T07:51:25;19.10;99.90
17483;DHT22;8858;52.308;20.994;2022-07-06T07:53:54;19.10;99.90
17483;DHT22;8858;52.308;20.994;2022-07-06T07:56:23;19.30;99.90
17483;DHT22;8858;52.308;20.994;2022-07-06T07:58:53;19.30;99.90
17483;DHT22;8858;52.308;20.994;2022-07-06T08:01:26;19.40;99.90
17483;DHT22;8858;52.308;20.994;2022-07-06T08:03:55;19.40;99.90
17483;DHT22;8858;52.308;20.994;2022-07-06T08:06:26;19.50;99.90
17483;DHT22;8858;52.308;20.994;2022-07-06T08:08:54;19.60;99.90
17483;DHT22;8858;52.308;20.994;2022-07-06T08:11:23;19.70;99.90
17483;DHT22;8858;52.308;20.994;2022-07-06T08:13:51;19.80;99.90
17483;DHT22;8858;52.308;20.994;2022-07-06T08:16:20;19.80;99.90
17483;DHT22;8858;52.308;20.994;2022-07-06T08:18:50;19.90;99.90
17483;DHT22;8858;52.308;20.994;2022-07-06T08:21:18;20.00;99.90
17483;DHT22;8858;52.308;20.994;2022-07-06T08:23:54;20.00;99.90
17483;DHT22;8858;52.308;20.994;2022-07-06T08:26:23;20.00;99.90
17483;DHT22;8858;52.308;20.994;2022-07-06T08:28:52;20.10;99.90
17483;DHT22;8858;52.308;20.994;2022-07-06T08:31:20;20.00;99.90
17483;DHT22;8858;52.308;20.994;2022-07-06T08:34:09;20.00;99.90
17483;DHT22;8858;52.308;20.994;2022-07-06T08:36:38;20.00;99.90
17483;DHT22;8858;52.308;20.994;2022-07-06T08:39:08;20.10;99.90
17483;DHT22;8858;52.308;20.994;2022-07-06T08:41:38;20.10;99.90
17483;DHT22;8858;52.308;20.994;2022-07-06T08:44:09;20.20;99.90
17483;DHT22;8858;52.308;20.994;2022-07-06T08:46:38;20.30;99.90
17483;DHT22;8858;52.308;20.994;2022-07-06T08:49:08;20.40;99.90
17483;DHT22;8858;52.308;20.994;2022-07-06T08:51:41;20.40;99.90
17483;DHT22;8858;52.308;20.994;2022-07-06T08:54:11;20.50;99.90
17483;DHT22;8858;52.308;20.994;2022-07-06T08:56:40;20.50;99.90
17483;DHT22;8858;52.308;20.994;2022-07-06T08:59:14;20.40;99.90
17483;DHT22;8858;52.308;20.994;2022-07-06T09:01:44;20.40;99.90
17483;DHT22;8858;52.308;20.994;2022-07-06T09:04:16;20.40;99.90
17483;DHT22;8858;52.308;20.994;2022-07-06T09:06:46;20.40;99.90
17483;DHT22;8858;52.308;20.994;2022-07-06T09:09:19;20.50;99.90
17483;DHT22;8858;52.308;20.994;2022-07-06T09:11:49;20.50;99.90
17483;DHT22;8858;52.308;20.994;2022-07-06T09:14:18;20.60;99.90
17483;DHT22;8858;52.308;20.994;2022-07-06T09:16:51;20.60;99.90
17483;DHT22;8858;52.308;20.994;2022-07-06T09:19:20;20.60;99.90
17483;DHT22;8858;52.308;20.994;2022-07-06T09:21:49;20.70;99.90
17483;DHT22;8858;52.308;20.994;2022-07-06T09:24:19;20.80;99.90
17483;DHT22;8858;52.308;20.994;2022-07-06T09:26:49;20.90;99.90
17483;DHT22;8858;52.308;20.994;2022-07-06T09:29:17;21.00;99.90
17483;DHT22;8858;52.308;20.994;2022-07-06T09:31:56;21.00;99.90
17483;DHT22;8858;52.308;20.994;2022-07-06T09:34:25;21.00;99.90
17483;DHT22;8858;52.308;20.994;2022-07-06T09:37:08;21.00;99.90
17483;DHT22;8858;52.308;20.994;2022-07-06T09:39:38;20.90;99.90
17483;DHT22;8858;52.308;20.994;2022-07-06T09:42:07;20.90;99.90
17483;DHT22;8858;52.308;20.994;2022-07-06T09:44:38;20.80;99.90
17483;DHT22;8858;52.308;20.994;2022-07-06T09:47:08;20.80;99.90
17483;DHT22;8858;52.308;20.994;2022-07-06T09:49:37;20.90;99.90
17483;DHT22;8858;52.308;20.994;2022-07-06T09:52:07;21.00;99.90
17483;DHT22;8858;52.308;20.994;2022-07-06T09:54:36;21.00;99.90
17483;DHT22;8858;52.308;20.994;2022-07-06T09:57:07;21.10;99.90
17483;DHT22;8858;52.308;20.994;2022-07-06T09:59:37;21.10;99.90
17483;DHT22;8858;52.308;20.994;2022-07-06T10:02:07;21.20;99.90
17483;DHT22;8858;52.308;20.994;2022-07-06T10:04:36;21.30;99.90
17483;DHT22;8858;52.308;20.994;2022-07-06T10:07:06;21.50;99.90
17483;DHT22;8858;52.308;20.994;2022-07-06T10:09:37;21.60;99.90
17483;DHT22;8858;52.308;20.994;2022-07-06T10:12:09;21.70;99.90
17483;DHT22;8858;52.308;20.994;2022-07-06T10:14:41;21.70;99.90
17483;DHT22;8858;52.308;20.994;2022-07-06T10:17:17;21.80;99.90
17483;DHT22;8858;52.308;20.994;2022-07-06T10:19:47;21.80;99.90
17483;DHT22;8858;52.308;20.994;2022-07-06T10:22:17;21.80;99.90
17483;DHT22;8858;52.308;20.994;2022-07-06T10:24:47;21.90;99.90
17483;DHT22;8858;52.308;20.994;2022-07-06T10:27:17;21.90;99.90
17483;DHT22;8858;52.308;20.994;2022-07-06T10:29:46;22.10;99.90
17483;DHT22;8858;52.308;20.994;2022-07-06T10:32:17;22.20;99.90
17483;DHT22;8858;52.308;20.994;2022-07-06T10:34:47;22.20;99.90
17483;DHT22;8858;52.308;20.994;2022-07-06T10:37:22;22.20;99.90
17483;DHT22;8858;52.308;20.994;2022-07-06T10:39:51;22.10;99.90
17483;DHT22;8858;52.308;20.994;2022-07-06T10:42:44;22.00;99.90
17483;DHT22;8858;52.308;20.994;2022-07-06T10:45:20;22.00;99.90
17483;DHT22;8858;52.308;20.994;2022-07-06T10:48:15;22.00;99.90
17483;DHT22;8858;52.308;20.994;2022-07-06T10:50:48;22.00;99.90
17483;DHT22;8858;52.308;20.994;2022-07-06T10:53:20;22.20;99.90
17483;DHT22;8858;52.308;20.994;2022-07-06T10:55:51;22.10;99.90
17483;DHT22;8858;52.308;20.994;2022-07-06T10:58:49;22.10;99.90
17483;DHT22;8858;52.308;20.994;2022-07-06T11:01:22;22.10;99.90
17483;DHT22;8858;52.308;20.994;2022-07-06T11:04:06;22.20;99.90
17483;DHT22;8858;52.308;20.994;2022-07-06T11:06:36;22.20;99.90
17483;DHT22;8858;52.308;20.994;2022-07-06T11:09:06;22.10;99.90
17483;DHT22;8858;52.308;20.994;2022-07-06T11:11:41;22.10;99.90
17483;DHT22;8858;52.308;20.994;2022-07-06T11:14:15;22.20;99.90
17483;DHT22;8858;52.308;20.994;2022-07-06T11:17:05;22.20;99.90
17483;DHT22;8858;52.308;20.994;2022-07-06T11:19:38;22.30;99.90
17483;DHT22;8858;52.308;20.994;2022-07-06T11:22:07;22.40;99.90
17483;DHT22;8858;52.308;20.994;2022-07-06T11:24:39;22.60;99.90
17483;DHT22;8858;52.308;20.994;2022-07-06T11:27:09;22.60;99.90
17483;DHT22;8858;52.308;20.994;2022-07-06T11:29:39;22.60;99.90
17483;DHT22;8858;52.308;20.994;2022-07-06T11:32:08;22.50;99.90
17483;DHT22;8858;52.308;20.994;2022-07-06T11:34:40;22.50;99.90
17483;DHT22;8858;52.308;20.994;2022-07-06T11:37:11;22.60;99.90
17483;DHT22;8858;52.308;20.994;2022-07-06T11:39:41;22.50;99.90
17483;DHT22;8858;52.308;20.994;2022-07-06T11:42:12;22.40;99.90
17483;DHT22;8858;52.308;20.994;2022-07-06T11:44:43;22.50;99.90
17483;DHT22;8858;52.308;20.994;2022-07-06T11:47:12;22.60;99.90
17483;DHT22;8858;52.308;20.994;2022-07-06T11:49:50;22.60;99.90
17483;DHT22;8858;52.308;20.994;2022-07-06T11:52:19;22.40;99.90
17483;DHT22;8858;52.308;20.994;2022-07-06T11:54:57;22.40;99.90
17483;DHT22;8858;52.308;20.994;2022-07-06T11:57:30;22.40;99.90
17483;DHT22;8858;52.308;20.994;2022-07-06T12:00:03;22.40;99.90
17483;DHT22;8858;52.308;20.994;2022-07-06T12:02:38;22.40;99.90
17483;DHT22;8858;52.308;20.994;2022-07-06T12:05:07;22.50;99.90
17483;DHT22;8858;52.308;20.994;2022-07-06T12:07:36;22.60;99.90
17483;DHT22;8858;52.308;20.994;2022-07-06T12:10:05;22.70;99.90
17483;DHT22;8858;52.308;20.994;2022-07-06T12:12:33;22.90;99.90
17483;DHT22;8858;52.308;20.994;2022-07-06T12:15:05;22.90;99.90
17483;DHT22;8858;52.308;20.994;2022-07-06T12:17:33;22.90;99.90
17483;DHT22;8858;52.308;20.994;2022-07-06T12:20:04;22.90;99.90
17483;DHT22;8858;52.308;20.994;2022-07-06T12:22:33;22.90;99.90
17483;DHT22;8858;52.308;20.994;2022-07-06T12:25:01;22.70;99.90
17483;DHT22;8858;52.308;20.994;2022-07-06T12:27:34;22.70;99.90
17483;DHT22;8858;52.308;20.994;2022-07-06T12:30:10;22.80;99.90
17483;DHT22;8858;52.308;20.994;2022-07-06T12:32:46;22.90;99.90
17483;DHT22;8858;52.308;20.994;2022-07-06T12:35:16;23.00;99.90
17483;DHT22;8858;52.308;20.994;2022-07-06T12:37:55;23.20;99.90
17483;DHT22;8858;52.308;20.994;2022-07-06T12:40:26;23.40;99.90
17483;DHT22;8858;52.308;20.994;2022-07-06T12:42:54;23.40;99.90
17483;DHT22;8858;52.308;20.994;2022-07-06T12:45:27;23.50;99.90
17483;DHT22;8858;52.308;20.994;2022-07-06T12:47:58;23.60;99.90
17483;DHT22;8858;52.308;20.994;2022-07-06T12:50:34;23.70;99.90
17483;DHT22;8858;52.308;20.994;2022-07-06T12:53:05;23.80;99.90
17483;DHT22;8858;52.308;20.994;2022-07-06T12:55:33;23.70;99.90
17483;DHT22;8858;52.308;20.994;2022-07-06T12:58:02;23.80;99.90
17483;DHT22;8858;52.308;20.994;2022-07-06T13:00:43;23.70;99.90
17483;DHT22;8858;52.308;20.994;2022-07-06T13:03:12;24.00;99.90
17483;DHT22;8858;52.308;20.994;2022-07-06T13:05:49;23.90;99.90
17483;DHT22;8858;52.308;20.994;2022-07-06T13:08:19;23.80;99.90
17483;DHT22;8858;52.308;20.994;2022-07-06T13:10:47;23.70;99.90
17483;DHT22;8858;52.308;20.994;2022-07-06T13:13:16;23.60;99.90
17483;DHT22;8858;52.308;20.994;2022-07-06T13:15:47;23.50;99.90
17483;DHT22;8858;52.308;20.994;2022-07-06T13:18:15;23.60;99.90
17483;DHT22;8858;52.308;20.994;2022-07-06T13:20:46;23.80;99.90
17483;DHT22;8858;52.308;20.994;2022-07-06T13:23:14;23.90;99.90
17483;DHT22;8858;52.308;20.994;2022-07-06T13:25:42;24.20;99.90
17483;DHT22;8858;52.308;20.994;2022-07-06T13:28:10;25.20;99.90
17483;DHT22;8858;52.308;20.994;2022-07-06T13:30:38;26.50;99.90
17483;DHT22;8858;52.308;20.994;2022-07-06T13:33:09;28.50;99.90
17483;DHT22;8858;52.308;20.994;2022-07-06T13:35:38;29.40;97.40
17483;DHT22;8858;52.308;20.994;2022-07-06T13:38:06;29.40;96.20
17483;DHT22;8858;52.308;20.994;2022-07-06T13:40:41;29.20;96.60
17483;DHT22;8858;52.308;20.994;2022-07-06T13:43:09;28.00;96.10
17483;DHT22;8858;52.308;20.994;2022-07-06T13:45:38;27.90;97.80
17483;DHT22;8858;52.308;20.994;2022-07-06T13:48:09;27.30;97.40
17483;DHT22;8858;52.308;20.994;2022-07-06T13:50:38;26.80;98.60
17483;DHT22;8858;52.308;20.994;2022-07-06T13:53:06;26.40;98.70
17483;DHT22;8858;52.308;20.994;2022-07-06T13:55:35;26.10;98.80
17483;DHT22;8858;52.308;20.994;2022-07-06T13:58:03;25.80;99.40
17483;DHT22;8858;52.308;20.994;2022-07-06T14:00:33;25.50;99.80
17483;DHT22;8858;52.308;20.994;2022-07-06T14:03:02;25.20;99.90
17483;DHT22;8858;52.308;20.994;2022-07-06T14:05:33;25.00;99.90
17483;DHT22;8858;52.308;20.994;2022-07-06T14:08:02;24.90;99.90
17483;DHT22;8858;52.308;20.994;2022-07-06T14:10:31;24.50;99.90
17483;DHT22;8858;52.308;20.994;2022-07-06T14:13:00;24.30;99.90
17483;DHT22;8858;52.308;20.994;2022-07-06T14:15:28;24.40;99.90
17483;DHT22;8858;52.308;20.994;2022-07-06T14:17:56;24.40;99.90
17483;DHT22;8858;52.308;20.994;2022-07-06T14:20:26;24.40;99.90
17483;DHT22;8858;52.308;20.994;2022-07-06T14:22:55;24.20;99.90
17483;DHT22;8858;52.308;20.994;2022-07-06T14:25:24;24.00;99.90
17483;DHT22;8858;52.308;20.994;2022-07-06T14:27:53;23.80;99.90
17483;DHT22;8858;52.308;20.994;2022-07-06T14:30:22;23.60;99.90
17483;DHT22;8858;52.308;20.994;2022-07-06T14:32:50;23.30;99.90
17483;DHT22;8858;52.308;20.994;2022-07-06T14:35:20;23.10;99.90
17483;DHT22;8858;52.308;20.994;2022-07-06T14:37:48;23.10;99.90
17483;DHT22;8858;52.308;20.994;2022-07-06T14:40:19;23.00;99.90
17483;DHT22;8858;52.308;20.994;2022-07-06T14:42:47;22.90;99.90
17483;DHT22;8858;52.308;20.994;2022-07-06T14:45:16;22.80;99.90
17483;DHT22;8858;52.308;20.994;2022-07-06T14:47:45;22.60;99.90
17483;DHT22;8858;52.308;20.994;2022-07-06T14:50:14;22.60;99.90
17483;DHT22;8858;52.308;20.994;2022-07-06T14:52:42;22.60;99.90
17483;DHT22;8858;52.308;20.994;2022-07-06T14:55:11;22.50;99.90
17483;DHT22;8858;52.308;20.994;2022-07-06T14:57:42;22.50;99.90
17483;DHT22;8858;52.308;20.994;2022-07-06T15:00:11;22.40;99.90
17483;DHT22;8858;52.308;20.994;2022-07-06T15:02:40;22.40;99.90
17483;DHT22;8858;52.308;20.994;2022-07-06T15:05:09;22.30;99.90
17483;DHT22;8858;52.308;20.994;2022-07-06T15:07:37;22.30;99.90
17483;DHT22;8858;52.308;20.994;2022-07-06T15:10:07;22.10;99.90
17483;DHT22;8858;52.308;20.994;2022-07-06T15:12:36;21.90;99.90
17483;DHT22;8858;52.308;20.994;2022-07-06T15:15:06;21.90;99.90
17483;DHT22;8858;52.308;20.994;2022-07-06T15:17:55;21.80;99.90
17483;DHT22;8858;52.308;20.994;2022-07-06T15:20:23;21.70;99.90
17483;DHT22;8858;52.308;20.994;2022-07-06T15:22:51;21.70;99.90
17483;DHT22;8858;52.308;20.994;2022-07-06T15:25:20;21.60;99.90
17483;DHT22;8858;52.308;20.994;2022-07-06T15:27:49;21.40;99.90
17483;DHT22;8858;52.308;20.994;2022-07-06T15:30:19;21.20;99.90
17483;DHT22;8858;52.308;20.994;2022-07-06T15:32:57;21.10;99.90
17483;DHT22;8858;52.308;20.994;2022-07-06T15:35:25;21.00;99.90
17483;DHT22;8858;52.308;20.994;2022-07-06T15:37:53;20.70;99.90
17483;DHT22;8858;52.308;20.994;2022-07-06T15:40:24;20.50;99.90
17483;DHT22;8858;52.308;20.994;2022-07-06T15:43:01;20.40;99.90
17483;DHT22;8858;52.308;20.994;2022-07-06T15:45:30;20.30;99.90
17483;DHT22;8858;52.308;20.994;2022-07-06T15:47:59;20.30;99.90
17483;DHT22;8858;52.308;20.994;2022-07-06T15:50:27;20.30;99.90
17483;DHT22;8858;52.308;20.994;2022-07-06T15:52:56;20.40;99.90
17483;DHT22;8858;52.308;20.994;2022-07-06T15:55:25;20.30;99.90
17483;DHT22;8858;52.308;20.994;2022-07-06T15:57:54;20.10;99.90
17483;DHT22;8858;52.308;20.994;2022-07-06T16:00:22;20.00;99.90